Time;durP1;ratioP1;P1;durP2;ratioP2;P2;SDS_P1;SDS_P2;PMS_P1;PMS_P2;Temp;Humidity;BMP_temperature;BMP_pressure;BME280_temperature;BME280_humidity;BME280_pressure;Samples;Min_cycle;Max_cycle;Signal;HPM_P1;HPM_P2
2023/11/29 00:00:17;;;;;;;9.68;5.00;;;2.10;98.90;;;;;;6270454;22;20429;-80
2023/11/29 00:03:03;;;;;;;6.45;4.65;;;2.10;99.00;;;;;;6270755;22;20439;-81
2023/11/29 00:05:49;;;;;;;8.77;5.43;;;2.10;99.00;;;;;;6270347;22;20015;-79
2023/11/29 00:08:35;;;;;;;9.55;5.82;;;2.10;99.00;;;;;;6270135;22;20440;-77
2023/11/29 00:11:21;;;;;;;7.63;4.97;;;2.00;98.90;;;;;;6269922;22;20030;-79
2023/11/29 00:14:07;;;;;;;8.93;5.68;;;2.00;98.90;;;;;;6271518;22;20011;-78
2023/11/29 00:16:53;;;;;;;8.82;6.00;;;2.00;98.90;;;;;;6269902;22;20043;-77
2023/11/29 00:19:41;;;;;;;9.88;5.05;;;2.00;98.90;;;;;;6272038;22;20004;-78
2023/11/29 00:22:27;;;;;;;8.30;4.82;;;1.90;98.90;;;;;;6250367;22;20007;-67
2023/11/29 00:25:13;;;;;;;8.57;5.18;;;1.90;98.90;;;;;;6248501;22;20015;-67
2023/11/29 00:27:59;;;;;;;7.80;5.30;;;1.90;98.90;;;;;;6270693;22;20457;-67
2023/11/29 00:30:45;;;;;;;10.27;5.88;;;2.00;98.90;;;;;;6270781;22;20023;-67
2023/11/29 00:33:31;;;;;;;9.98;5.47;;;1.90;98.90;;;;;;6271849;22;20003;-67
2023/11/29 00:36:17;;;;;;;10.90;6.13;;;1.80;98.90;;;;;;6270348;22;20011;-67
2023/11/29 00:39:03;;;;;;;11.05;6.05;;;1.80;98.90;;;;;;6271298;22;20042;-68
2023/11/29 00:41:49;;;;;;;10.48;6.25;;;1.80;98.90;;;;;;6250090;22;20334;-67
2023/11/29 00:44:35;;;;;;;7.40;5.18;;;1.70;98.90;;;;;;6249031;22;20011;-68
2023/11/29 00:47:21;;;;;;;8.40;5.68;;;1.70;98.90;;;;;;6272492;22;20313;-68
2023/11/29 00:50:07;;;;;;;11.52;6.57;;;1.60;98.90;;;;;;6272245;22;20015;-68
2023/11/29 00:52:53;;;;;;;12.57;6.32;;;1.60;98.90;;;;;;6270229;22;20494;-68
2023/11/29 00:55:39;;;;;;;9.07;5.47;;;1.60;98.90;;;;;;6272850;22;20018;-68
2023/11/29 00:58:25;;;;;;;9.77;5.75;;;1.50;98.90;;;;;;6270132;22;20007;-67
2023/11/29 01:01:11;;;;;;;8.27;5.50;;;1.50;98.90;;;;;;6271209;22;20035;-68
2023/11/29 01:04:00;;;;;;;11.27;5.93;;;1.40;98.90;;;;;;6269415;22;20016;-68
2023/11/29 01:06:46;;;;;;;12.88;6.45;;;1.40;99.00;;;;;;6271080;22;20006;-68
2023/11/29 01:09:31;;;;;;;9.57;6.03;;;1.40;98.90;;;;;;6271855;22;20004;-68
2023/11/29 01:12:17;;;;;;;9.77;6.38;;;1.30;98.90;;;;;;6271269;22;20043;-68
2023/11/29 01:15:04;;;;;;;8.75;5.88;;;1.30;99.00;;;;;;6272319;22;20401;-67
2023/11/29 01:17:50;;;;;;;10.05;6.10;;;1.20;99.00;;;;;;6272398;22;20014;-76
2023/11/29 01:20:35;;;;;;;9.65;5.80;;;1.20;99.00;;;;;;6270881;22;20326;-69
2023/11/29 01:23:21;;;;;;;8.25;5.15;;;1.30;99.00;;;;;;6248011;22;20330;-71
2023/11/29 01:26:08;;;;;;;11.18;6.15;;;1.20;99.00;;;;;;6249939;22;20018;-71
2023/11/29 01:28:54;;;;;;;11.32;6.57;;;1.10;99.20;;;;;;6271076;22;20015;-69
2023/11/29 01:31:40;;;;;;;9.70;5.95;;;1.10;99.00;;;;;;6271893;22;20028;-70
2023/11/29 01:34:26;;;;;;;9.70;5.82;;;1.10;99.00;;;;;;6271795;22;20004;-69
2023/11/29 01:37:15;;;;;;;12.90;6.60;;;1.10;99.00;;;;;;6271163;22;20011;-69
2023/11/29 01:40:02;;;;;;;10.23;6.13;;;1.00;99.00;;;;;;6271674;22;20004;-68
2023/11/29 01:42:48;;;;;;;13.15;6.47;;;0.90;98.90;;;;;;6269720;22;20417;-70
2023/11/29 01:45:34;;;;;;;9.27;6.40;;;0.90;99.00;;;;;;6271318;22;20114;-69
2023/11/29 01:48:22;;;;;;;9.63;5.82;;;0.90;99.00;;;;;;6270664;22;20004;-69
2023/11/29 01:51:08;;;;;;;12.48;6.97;;;0.90;99.00;;;;;;6271626;22;20326;-69
2023/11/29 01:53:55;;;;;;;10.60;6.07;;;0.80;99.00;;;;;;6270668;22;20421;-69
2023/11/29 01:56:41;;;;;;;10.77;6.25;;;0.70;99.00;;;;;;6271151;22;20397;-69
2023/11/29 01:59:27;;;;;;;11.77;6.47;;;0.70;98.90;;;;;;6270834;22;20050;-72
2023/11/29 02:02:13;;;;;;;10.15;6.20;;;0.70;99.00;;;;;;6269897;22;20485;-71
2023/11/29 02:04:59;;;;;;;10.82;6.50;;;0.60;99.00;;;;;;6269933;22;20023;-71
2023/11/29 02:07:46;;;;;;;9.80;6.25;;;0.60;99.00;;;;;;6270301;22;20008;-71
2023/11/29 02:10:33;;;;;;;12.60;6.95;;;0.60;99.00;;;;;;6272425;22;20023;-72
2023/11/29 02:13:20;;;;;;;12.85;7.10;;;0.60;99.00;;;;;;6271959;22;20011;-71
2023/11/29 02:16:06;;;;;;;12.38;7.00;;;0.50;99.00;;;;;;6271086;22;20087;-71
2023/11/29 02:18:53;;;;;;;12.38;6.95;;;0.50;99.00;;;;;;6271298;22;20434;-71
2023/11/29 02:21:39;;;;;;;13.75;7.88;;;0.60;99.10;;;;;;6271378;22;20016;-72
2023/11/29 02:24:32;;;;;;;11.40;6.68;;;0.60;99.10;;;;;;6270582;22;20031;-72
2023/11/29 02:27:18;;;;;;;12.00;7.18;;;0.60;99.10;;;;;;6269495;22;20065;-68
2023/11/29 02:30:05;;;;;;;12.65;6.70;;;0.60;99.10;;;;;;6269497;22;20265;-69
2023/11/29 02:32:50;;;;;;;12.68;7.47;;;0.60;99.10;;;;;;6270203;22;20122;-69
2023/11/29 02:35:37;;;;;;;10.07;6.22;;;0.60;99.20;;;;;;6269894;22;20003;-70
2023/11/29 02:38:23;;;;;;;9.45;6.22;;;0.60;99.20;;;;;;6269532;22;20008;-69
2023/11/29 02:41:08;;;;;;;10.27;6.85;;;0.60;99.20;;;;;;6268511;22;20008;-69
2023/11/29 02:43:55;;;;;;;11.15;6.18;;;0.60;99.20;;;;;;6271441;22;20107;-69
2023/11/29 02:46:42;;;;;;;15.55;7.05;;;0.60;99.20;;;;;;6270372;22;20011;-68
2023/11/29 02:49:28;;;;;;;9.15;6.13;;;0.60;99.20;;;;;;6268597;22;20023;-69
2023/11/29 02:52:14;;;;;;;11.68;6.32;;;0.70;99.30;;;;;;6269365;22;20028;-68
2023/11/29 02:55:00;;;;;;;12.38;6.97;;;0.70;99.30;;;;;;6270179;22;20008;-68
2023/11/29 02:57:46;;;;;;;10.65;5.82;;;0.70;99.30;;;;;;6269157;22;20014;-69
2023/11/29 03:00:32;;;;;;;10.10;5.80;;;0.70;99.30;;;;;;6270435;22;20015;-69
2023/11/29 03:03:18;;;;;;;13.98;6.90;;;0.80;99.30;;;;;;6271207;22;20364;-69
2023/11/29 03:06:04;;;;;;;10.52;5.88;;;0.70;99.20;;;;;;6271894;22;20008;-69
2023/11/29 03:08:50;;;;;;;10.30;5.68;;;0.70;99.20;;;;;;6269249;22;20016;-69
2023/11/29 03:11:36;;;;;;;10.85;5.30;;;0.80;99.20;;;;;;6271497;22;20051;-69
2023/11/29 03:14:22;;;;;;;9.52;5.43;;;0.70;99.10;;;;;;6269355;22;20014;-68
2023/11/29 03:17:08;;;;;;;8.40;5.00;;;0.70;99.10;;;;;;6270804;22;20015;-69
2023/11/29 03:19:54;;;;;;;9.23;5.85;;;0.90;99.10;;;;;;6270700;22;20338;-69
2023/11/29 03:22:40;;;;;;;11.02;5.63;;;0.70;99.00;;;;;;6247965;22;20015;-69
2023/11/29 03:25:26;;;;;;;9.10;5.78;;;0.70;99.10;;;;;;6270880;22;20004;-69
2023/11/29 03:28:12;;;;;;;9.48;4.82;;;0.70;99.10;;;;;;6269903;22;20014;-69
2023/11/29 03:30:58;;;;;;;7.75;4.85;;;0.70;99.10;;;;;;6271226;22;20404;-69
2023/11/29 03:33:44;;;;;;;11.43;5.65;;;0.70;99.00;;;;;;6269542;22;20103;-69
2023/11/29 03:36:30;;;;;;;9.70;5.50;;;0.70;99.00;;;;;;6270585;22;20208;-69
2023/11/29 03:39:16;;;;;;;9.65;6.00;;;0.70;99.00;;;;;;6270785;22;20007;-69
2023/11/29 03:42:02;;;;;;;7.50;4.93;;;0.70;99.00;;;;;;6270285;22;20008;-70
2023/11/29 03:44:48;;;;;;;7.18;4.97;;;0.70;99.00;;;;;;6269787;22;20008;-70
2023/11/29 03:47:34;;;;;;;8.07;4.97;;;0.70;99.00;;;;;;6269935;22;20047;-70
2023/11/29 03:50:20;;;;;;;8.55;4.80;;;0.70;98.90;;;;;;6267774;22;20023;-69
2023/11/29 03:53:06;;;;;;;8.45;5.03;;;0.60;98.90;;;;;;6270380;22;20012;-68
2023/11/29 03:55:52;;;;;;;9.07;5.50;;;0.60;98.90;;;;;;6270429;22;20004;-70
2023/11/29 03:58:38;;;;;;;8.45;4.88;;;0.60;98.90;;;;;;6270593;22;20008;-71
2023/11/29 04:01:24;;;;;;;7.13;4.78;;;0.50;98.80;;;;;;6270468;22;20517;-68
2023/11/29 04:04:10;;;;;;;7.70;4.63;;;0.50;98.90;;;;;;6271503;22;20464;-68
2023/11/29 04:06:56;;;;;;;7.07;4.97;;;0.50;98.90;;;;;;6269389;22;20091;-69
2023/11/29 04:09:45;;;;;;;9.48;5.35;;;0.40;98.90;;;;;;6270155;22;20120;-69
2023/11/29 04:12:31;;;;;;;7.75;5.20;;;0.40;98.90;;;;;;6269228;22;20022;-69
2023/11/29 04:15:17;;;;;;;9.65;5.00;;;0.40;98.90;;;;;;6269153;22;20008;-69
2023/11/29 04:18:03;;;;;;;9.65;5.13;;;0.40;99.00;;;;;;6270266;22;20086;-69
2023/11/29 04:20:49;;;;;;;8.25;5.50;;;0.40;99.00;;;;;;6270076;22;20004;-69
2023/11/29 04:23:35;;;;;;;8.68;5.28;;;0.40;99.00;;;;;;6271575;22;20015;-70
2023/11/29 04:26:40;;;;;;;8.60;5.40;;;0.40;99.00;;;;;;6269774;22;20014;-69
2023/11/29 04:29:26;;;;;;;8.02;4.90;;;0.40;99.00;;;;;;6270302;22;20004;-68
2023/11/29 04:32:12;;;;;;;8.05;4.90;;;0.40;99.00;;;;;;6270165;22;20047;-68
2023/11/29 04:34:58;;;;;;;8.52;5.60;;;0.30;99.00;;;;;;6268641;22;20058;-69
2023/11/29 04:37:44;;;;;;;8.65;4.95;;;0.40;99.00;;;;;;6269884;22;20106;-69
2023/11/29 04:40:29;;;;;;;9.77;5.85;;;0.40;99.00;;;;;;6269333;22;20015;-69
2023/11/29 04:43:15;;;;;;;8.57;5.30;;;0.40;99.00;;;;;;6269473;22;20495;-69
2023/11/29 04:46:02;;;;;;;8.57;5.30;;;0.50;99.00;;;;;;6269573;22;20078;-69
2023/11/29 04:48:48;;;;;;;7.05;4.63;;;0.50;99.00;;;;;;6268665;22;20045;-69
2023/11/29 04:51:34;;;;;;;8.25;4.82;;;0.50;99.00;;;;;;6248249;22;20027;-69
2023/11/29 04:54:20;;;;;;;8.52;5.47;;;0.50;99.00;;;;;;6268836;22;20008;-69
2023/11/29 04:57:06;;;;;;;6.95;4.88;;;0.50;98.90;;;;;;6270093;22;20011;-69
2023/11/29 04:59:52;;;;;;;8.30;5.93;;;0.50;99.00;;;;;;6270547;22;20027;-69
2023/11/29 05:02:38;;;;;;;7.22;4.90;;;0.50;99.00;;;;;;6268935;22;20034;-69
2023/11/29 05:05:24;;;;;;;8.75;5.05;;;0.50;98.90;;;;;;6269639;22;20032;-71
2023/11/29 05:08:10;;;;;;;9.52;5.53;;;0.50;98.90;;;;;;6272316;22;20078;-71
2023/11/29 05:10:57;;;;;;;7.05;4.57;;;0.50;98.90;;;;;;6247997;22;20030;-71
2023/11/29 05:13:43;;;;;;;8.40;5.43;;;0.50;99.00;;;;;;6272338;22;20011;-71
2023/11/29 05:16:29;;;;;;;7.93;5.30;;;0.50;99.00;;;;;;6273290;22;20004;-71
2023/11/29 05:19:14;;;;;;;8.35;4.97;;;0.50;98.90;;;;;;6272825;22;20085;-71
2023/11/29 05:22:00;;;;;;;6.88;4.65;;;0.60;98.90;;;;;;6274635;22;20374;-77
2023/11/29 05:24:46;;;;;;;6.63;4.15;;;0.60;98.90;;;;;;6274934;22;20433;-79
2023/11/29 05:27:32;;;;;;;6.68;4.88;;;0.60;98.90;;;;;;6273210;22;20433;-73
2023/11/29 05:30:18;;;;;;;7.65;4.93;;;0.60;98.90;;;;;;6271714;22;20023;-70
2023/11/29 05:33:07;;;;;;;5.97;4.43;;;0.60;98.90;;;;;;6272481;22;20090;-71
2023/11/29 05:35:53;;;;;;;6.43;4.38;;;0.70;98.90;;;;;;6273779;22;20019;-66
2023/11/29 05:38:39;;;;;;;7.97;4.55;;;0.80;98.90;;;;;;6270196;22;20011;-66
2023/11/29 05:41:25;;;;;;;5.90;4.93;;;0.70;98.90;;;;;;6269905;22;20077;-67
2023/11/29 05:44:13;;;;;;;8.02;4.72;;;0.80;98.90;;;;;;6268017;22;20004;-66
2023/11/29 05:46:59;;;;;;;6.72;4.63;;;0.80;98.90;;;;;;6272099;22;20016;-66
2023/11/29 05:49:45;;;;;;;6.75;4.82;;;0.90;98.90;;;;;;6270604;22;20019;-67
2023/11/29 05:52:31;;;;;;;9.40;5.20;;;0.90;98.90;;;;;;6269356;22;20712;-67
2023/11/29 05:55:17;;;;;;;10.05;4.70;;;0.90;98.90;;;;;;6270444;22;20460;-67
2023/11/29 05:58:03;;;;;;;7.85;5.05;;;1.00;98.90;;;;;;6272582;22;20012;-67
2023/11/29 06:00:49;;;;;;;6.82;4.88;;;1.00;99.00;;;;;;6270702;22;20445;-68
2023/11/29 06:03:36;;;;;;;7.43;4.75;;;1.00;99.00;;;;;;6270077;22;20438;-68
2023/11/29 06:06:22;;;;;;;7.13;5.13;;;1.00;99.00;;;;;;6267973;22;20019;-67
2023/11/29 06:09:09;;;;;;;7.18;4.47;;;1.00;99.00;;;;;;6270456;22;20004;-67
2023/11/29 06:11:55;;;;;;;9.27;5.57;;;1.10;99.10;;;;;;6269265;22;20114;-68
2023/11/29 06:14:42;;;;;;;6.53;4.60;;;1.10;99.00;;;;;;6269713;22;20707;-68
2023/11/29 06:17:27;;;;;;;8.65;5.43;;;1.10;99.00;;;;;;6268688;22;20437;-68
2023/11/29 06:20:18;;;;;;;7.50;4.55;;;1.10;99.00;;;;;;6271463;22;20007;-68
2023/11/29 06:23:06;;;;;;;6.72;4.50;;;1.10;99.20;;;;;;6270458;22;20014;-68
2023/11/29 06:25:52;;;;;;;7.00;4.97;;;1.10;99.00;;;;;;6269971;22;20134;-67
2023/11/29 06:28:40;;;;;;;7.57;4.97;;;1.20;99.00;;;;;;6270028;22;20330;-68
2023/11/29 06:31:26;;;;;;;7.35;4.60;;;1.20;99.00;;;;;;6248709;22;20012;-68
2023/11/29 06:34:12;;;;;;;7.30;4.85;;;1.20;99.00;;;;;;6270881;22;20057;-69
2023/11/29 06:36:58;;;;;;;8.57;5.65;;;1.20;99.00;;;;;;6248673;22;20061;-69
2023/11/29 06:39:46;;;;;;;7.10;4.90;;;1.30;99.00;;;;;;6249861;22;20016;-70
2023/11/29 06:42:32;;;;;;;8.52;5.22;;;1.30;99.00;;;;;;6270100;22;20012;-69
2023/11/29 06:45:19;;;;;;;7.90;5.45;;;1.30;99.00;;;;;;6270315;22;20011;-69
2023/11/29 06:48:06;;;;;;;7.57;5.60;;;1.30;99.00;;;;;;6248704;22;20019;-69
2023/11/29 06:50:53;;;;;;;8.45;5.07;;;1.30;99.20;;;;;;6272356;22;20384;-68
2023/11/29 06:53:39;;;;;;;8.38;5.88;;;1.30;99.00;;;;;;6270191;22;20152;-69
2023/11/29 06:56:25;;;;;;;19.58;6.03;;;1.40;99.10;;;;;;6270896;22;20039;-70
2023/11/29 06:59:11;;;;;;;9.80;5.60;;;1.40;99.20;;;;;;6270427;22;20087;-69
2023/11/29 07:01:57;;;;;;;8.52;5.38;;;1.40;99.20;;;;;;6270074;22;20014;-69
2023/11/29 07:04:43;;;;;;;9.52;5.65;;;1.40;99.20;;;;;;6270937;22;20012;-69
2023/11/29 07:07:29;;;;;;;8.02;5.30;;;1.40;99.20;;;;;;6269599;22;20031;-70
2023/11/29 07:10:18;;;;;;;11.63;5.90;;;1.40;99.30;;;;;;6269681;22;20019;-69
2023/11/29 07:13:05;;;;;;;11.38;6.68;;;1.40;99.30;;;;;;6270151;22;20454;-69
2023/11/29 07:15:56;;;;;;;8.95;5.93;;;1.40;99.30;;;;;;6270071;22;20141;-69
2023/11/29 07:18:42;;;;;;;8.10;5.72;;;1.40;99.30;;;;;;6265793;22;20563;-67
2023/11/29 07:21:28;;;;;;;8.95;5.68;;;1.40;99.40;;;;;;6270349;22;20015;-69
2023/11/29 07:24:14;;;;;;;9.55;5.93;;;1.40;99.40;;;;;;6268251;22;20390;-69
2023/11/29 07:27:00;;;;;;;8.40;6.50;;;1.40;99.40;;;;;;6269292;22;20646;-69
2023/11/29 07:29:46;;;;;;;8.63;5.85;;;1.40;99.40;;;;;;6269174;22;20376;-69
2023/11/29 07:32:32;;;;;;;12.60;6.78;;;1.40;99.40;;;;;;6269289;22;20015;-69
2023/11/29 07:35:18;;;;;;;8.90;6.47;;;1.50;99.40;;;;;;6270919;22;20018;-68
2023/11/29 07:38:04;;;;;;;11.40;6.07;;;1.50;99.40;;;;;;6269668;22;20101;-69
2023/11/29 07:40:51;;;;;;;11.98;6.80;;;1.50;99.40;;;;;;6266800;22;20330;-68
2023/11/29 07:43:37;;;;;;;10.30;5.72;;;1.50;99.40;;;;;;6248005;22;20054;-69
2023/11/29 07:46:23;;;;;;;7.95;5.75;;;1.50;99.40;;;;;;6270446;22;20046;-69
2023/11/29 07:49:12;;;;;;;8.43;5.25;;;1.50;99.40;;;;;;6269373;22;20025;-69
2023/11/29 07:51:58;;;;;;;8.25;5.68;;;1.50;99.40;;;;;;6268787;22;20126;-67
2023/11/29 07:54:44;;;;;;;9.00;5.85;;;1.50;99.40;;;;;;6268872;22;20008;-67
2023/11/29 07:57:30;;;;;;;15.27;6.30;;;1.50;99.40;;;;;;6268728;22;20396;-68
2023/11/29 08:00:17;;;;;;;11.85;5.97;;;1.60;99.40;;;;;;6267776;22;20011;-69
2023/11/29 08:03:03;;;;;;;10.00;6.10;;;1.60;99.60;;;;;;6268847;22;20012;-69
2023/11/29 08:05:49;;;;;;;8.90;6.18;;;1.60;99.40;;;;;;6269898;22;20015;-68
2023/11/29 08:08:35;;;;;;;9.60;5.97;;;1.60;99.50;;;;;;6269314;22;20023;-68
2023/11/29 08:11:21;;;;;;;12.32;6.47;;;1.70;99.40;;;;;;6268056;22;20099;-66
2023/11/29 08:14:07;;;;;;;8.43;6.20;;;1.70;99.40;;;;;;6269110;22;20003;-67
2023/11/29 08:16:53;;;;;;;12.68;7.15;;;1.70;99.50;;;;;;6270014;22;20073;-69
2023/11/29 08:19:38;;;;;;;10.85;7.13;;;1.80;99.50;;;;;;6269760;22;20008;-70
2023/11/29 08:22:24;;;;;;;9.32;6.68;;;1.80;99.40;;;;;;6269055;22;20023;-70
2023/11/29 08:25:10;;;;;;;10.55;6.95;;;1.70;99.40;;;;;;6271114;22;20000;-70
2023/11/29 08:27:56;;;;;;;8.27;6.13;;;1.80;99.50;;;;;;6269641;22;20077;-70
2023/11/29 08:30:42;;;;;;;9.80;6.15;;;1.80;99.50;;;;;;6268372;22;20023;-71
2023/11/29 08:33:30;;;;;;;8.82;6.32;;;1.90;99.50;;;;;;6268110;22;20011;-70
2023/11/29 08:36:15;;;;;;;8.55;6.22;;;1.90;99.50;;;;;;6268441;22;20045;-70
2023/11/29 08:39:01;;;;;;;10.70;6.97;;;1.90;99.50;;;;;;6269543;22;20438;-70
2023/11/29 08:41:47;;;;;;;10.48;6.65;;;2.00;99.60;;;;;;6270213;22;20087;-70
2023/11/29 08:44:33;;;;;;;10.13;7.00;;;1.90;99.60;;;;;;6270971;22;20004;-68
2023/11/29 08:47:19;;;;;;;7.93;6.00;;;2.00;99.80;;;;;;6269719;22;20008;-68
2023/11/29 08:50:05;;;;;;;10.47;6.57;;;2.10;99.70;;;;;;6271195;22;20027;-67
2023/11/29 08:52:51;;;;;;;13.40;6.72;;;2.10;99.60;;;;;;6270826;22;20016;-67
2023/11/29 08:55:42;;;;;;;9.25;6.15;;;2.10;99.60;;;;;;6272444;22;20018;-67
2023/11/29 08:58:28;;;;;;;9.77;6.25;;;2.10;99.60;;;;;;6271230;22;20445;-67
2023/11/29 09:01:18;;;;;;;12.13;6.35;;;2.10;99.60;;;;;;6269449;22;20012;-68
2023/11/29 09:04:05;;;;;;;8.07;5.53;;;2.20;99.70;;;;;;6270482;22;20012;-68
2023/11/29 09:06:51;;;;;;;8.32;6.05;;;2.20;99.70;;;;;;6268165;22;20007;-68
2023/11/29 09:09:37;;;;;;;10.75;7.00;;;2.20;99.70;;;;;;6271225;22;20012;-68
2023/11/29 09:12:25;;;;;;;10.18;6.93;;;2.30;99.80;;;;;;6248577;22;20023;-67
2023/11/29 09:15:11;;;;;;;9.75;6.68;;;2.30;99.80;;;;;;6271612;22;20073;-67
2023/11/29 09:17:57;;;;;;;12.52;5.95;;;2.30;99.80;;;;;;6269892;22;20318;-68
2023/11/29 09:20:44;;;;;;;9.88;6.78;;;2.30;99.80;;;;;;6270128;22;20094;-68
2023/11/29 09:23:32;;;;;;;10.15;6.63;;;2.30;99.90;;;;;;6270005;22;20489;-68
2023/11/29 09:26:18;;;;;;;9.70;6.20;;;2.40;99.90;;;;;;6270464;22;20066;-69
2023/11/29 09:29:05;;;;;;;12.20;7.78;;;2.50;99.90;;;;;;6269559;22;20086;-69
2023/11/29 09:31:51;;;;;;;8.45;5.88;;;2.50;99.90;;;;;;6269983;22;20043;-69
2023/11/29 09:34:37;;;;;;;9.55;5.85;;;2.50;99.90;;;;;;6270643;22;20008;-69
2023/11/29 09:37:23;;;;;;;10.25;5.55;;;2.60;99.90;;;;;;6268881;22;20008;-69
2023/11/29 09:40:10;;;;;;;7.65;5.57;;;2.60;99.90;;;;;;6271155;22;20094;-68
2023/11/29 09:42:57;;;;;;;8.65;5.65;;;2.60;99.90;;;;;;6269661;22;20138;-68
2023/11/29 09:45:43;;;;;;;9.80;6.13;;;2.70;99.90;;;;;;6271165;22;20031;-75
2023/11/29 09:48:29;;;;;;;8.82;5.72;;;2.70;99.80;;;;;;6271543;22;20007;-83
2023/11/29 09:51:15;;;;;;;9.25;5.85;;;2.80;99.70;;;;;;6270142;22;20085;-83
2023/11/29 09:54:01;;;;;;;8.60;5.40;;;2.80;99.70;;;;;;6269284;22;20008;-81
2023/11/29 09:56:47;;;;;;;9.70;5.88;;;2.90;99.60;;;;;;6272061;22;20014;-81
2023/11/29 09:59:33;;;;;;;9.90;5.97;;;2.90;99.60;;;;;;6272780;22;20026;-82
2023/11/29 10:02:23;;;;;;;8.50;6.10;;;2.90;99.60;;;;;;6271869;22;20085;-83
2023/11/29 10:05:10;;;;;;;12.85;4.88;;;3.00;99.60;;;;;;6271894;22;20015;-82
2023/11/29 10:07:58;;;;;;;8.50;5.70;;;3.10;99.60;;;;;;6272125;22;20008;-84
2023/11/29 10:10:44;;;;;;;10.38;6.60;;;3.10;99.60;;;;;;6271280;22;20342;-82
2023/11/29 10:13:30;;;;;;;9.35;5.78;;;3.20;99.60;;;;;;6272134;22;20008;-81
2023/11/29 10:16:19;;;;;;;9.88;7.05;;;3.20;99.50;;;;;;6271122;22;20012;-80
2023/11/29 10:19:09;;;;;;;9.63;6.30;;;3.20;99.50;;;;;;6270684;22;20092;-79
2023/11/29 10:21:55;;;;;;;8.48;6.03;;;3.20;99.50;;;;;;6270174;22;20004;-66
2023/11/29 10:24:42;;;;;;;11.07;6.20;;;3.20;99.50;;;;;;6270678;22;20073;-66
2023/11/29 10:27:28;;;;;;;10.50;6.63;;;3.30;99.60;;;;;;6270850;22;20373;-67
2023/11/29 10:30:14;;;;;;;11.18;6.85;;;3.30;99.60;;;;;;6270031;22;20118;-66
2023/11/29 10:33:03;;;;;;;11.45;7.03;;;3.30;99.70;;;;;;6270744;22;20011;-67
2023/11/29 10:35:49;;;;;;;11.10;7.50;;;3.30;99.70;;;;;;6270882;22;20000;-67
2023/11/29 10:38:44;;;;;;;10.98;6.60;;;3.30;99.70;;;;;;6270283;22;20016;-81
2023/11/29 10:41:32;;;;;;;;;;;3.40;99.80;;;;;;6270840;22;20008;-82
2023/11/29 10:44:24;;;;;;;12.15;6.40;;;3.40;99.80;;;;;;6271093;22;19907;-83
2023/11/29 10:47:26;;;;;;;10.50;6.60;;;3.40;99.80;;;;;;6270158;22;20089;-82
2023/11/29 10:50:14;;;;;;;10.30;6.78;;;3.40;99.80;;;;;;6267841;22;20019;-66
2023/11/29 10:53:01;;;;;;;20.48;7.43;;;3.50;99.90;;;;;;6268643;22;20026;-67
2023/11/29 10:55:48;;;;;;;13.68;7.57;;;3.50;99.90;;;;;;6270238;22;20008;-66
2023/11/29 10:59:04;;;;;;;11.02;6.82;;;3.60;99.90;;;;;;6272094;22;20020;-66
2023/11/29 11:01:57;;;;;;;15.23;7.65;;;3.60;99.80;;;;;;6268592;22;20025;-66
2023/11/29 11:04:47;;;;;;;11.40;6.93;;;3.70;99.80;;;;;;6269576;22;20008;-67
2023/11/29 11:07:44;;;;;;;10.15;6.88;;;3.70;99.80;;;;;;6270600;22;20022;-67
2023/11/29 11:10:29;;;;;;;9.73;7.00;;;3.70;99.80;;;;;;6270742;22;20460;-67
2023/11/29 11:13:37;;;;;;;14.40;7.82;;;3.70;99.80;;;;;;6271183;22;20012;-67
2023/11/29 11:16:23;;;;;;;12.27;7.03;;;3.70;99.70;;;;;;6270754;22;20438;-67
2023/11/29 11:19:10;;;;;;;12.00;7.47;;;3.70;99.70;;;;;;6247347;22;20008;-83
2023/11/29 11:21:56;;;;;;;11.40;7.00;;;3.70;99.70;;;;;;6271552;22;20008;-83
2023/11/29 11:25:05;;;;;;;11.15;6.72;;;3.70;99.70;;;;;;6248856;22;20008;-83
2023/11/29 11:27:51;;;;;;;12.32;7.53;;;3.80;99.80;;;;;;6269763;22;20023;-84
2023/11/29 11:30:42;;;;;;;11.27;7.10;;;3.80;99.80;;;;;;6270184;22;20031;-84
2023/11/29 11:34:07;;;;;;;12.30;6.95;;;3.70;99.80;;;;;;6269740;22;20517;-83
2023/11/29 11:36:54;;;;;;;10.13;6.75;;;3.80;99.90;;;;;;6118150;23;20037;-81
2023/11/29 11:39:41;;;;;;;15.27;7.80;;;3.80;99.80;;;;;;6098348;23;20578;-81
2023/11/29 11:42:27;;;;;;;13.80;7.60;;;3.70;99.80;;;;;;6118633;23;20146;-82
2023/11/29 11:45:14;;;;;;;10.35;7.15;;;3.70;99.80;;;;;;6120117;23;20017;-68
2023/11/29 11:48:03;;;;;;;12.00;7.00;;;3.70;99.80;;;;;;6119794;23;20018;-82
2023/11/29 11:50:49;;;;;;;10.82;7.22;;;3.70;99.80;;;;;;6117927;23;20368;-83
2023/11/29 11:53:42;;;;;;;13.23;6.97;;;3.70;99.90;;;;;;6119020;23;20013;-83
2023/11/29 11:56:28;;;;;;;10.40;6.70;;;3.70;99.90;;;;;;6118621;23;20010;-85
2023/11/29 11:59:14;;;;;;;11.85;7.22;;;3.70;99.90;;;;;;6119184;23;20010;-84
2023/11/29 12:02:01;;;;;;;9.80;6.53;;;3.70;99.80;;;;;;6098226;23;20094;-84
2023/11/29 12:04:47;;;;;;;11.32;7.53;;;3.60;99.80;;;;;;6120218;23;20072;-85
2023/11/29 12:07:39;;;;;;;11.48;7.05;;;3.60;99.80;;;;;;6208560;22;20555;-85
2023/11/29 12:10:25;;;;;;;12.27;7.13;;;3.60;99.80;;;;;;6247084;22;20038;-84
2023/11/29 12:13:11;;;;;;;10.20;6.88;;;3.60;99.90;;;;;;6269296;22;20018;-84
2023/11/29 12:15:57;;;;;;;10.80;7.22;;;3.60;99.90;;;;;;6271194;22;20008;-83
2023/11/29 12:18:43;;;;;;;12.38;7.63;;;3.60;99.90;;;;;;6271147;22;20077;-81
2023/11/29 12:21:30;;;;;;;11.50;7.93;;;3.60;99.90;;;;;;6272444;22;20004;-82
2023/11/29 12:24:16;;;;;;;11.95;8.15;;;3.60;99.90;;;;;;6271079;22;20022;-82
2023/11/29 12:27:08;;;;;;;16.55;8.20;;;3.50;99.90;;;;;;6271349;22;20019;-81
2023/11/29 12:29:59;;;;;;;15.00;8.10;;;3.50;99.90;;;;;;6272362;22;20019;-82
2023/11/29 12:32:45;;;;;;;16.00;7.88;;;3.50;99.90;;;;;;6250901;22;20058;-66
2023/11/29 12:35:31;;;;;;;12.10;7.72;;;3.50;99.90;;;;;;6249114;22;20014;-66
2023/11/29 12:38:19;;;;;;;14.77;7.82;;;3.50;99.90;;;;;;6271005;22;20011;-67
2023/11/29 12:41:05;;;;;;;13.95;9.05;;;3.50;99.90;;;;;;6248962;22;20327;-67
2023/11/29 12:43:51;;;;;;;12.27;7.65;;;3.50;99.90;;;;;;6249950;22;20396;-80
2023/11/29 12:46:37;;;;;;;12.90;7.93;;;3.50;99.90;;;;;;6248881;22;20429;-80
2023/11/29 12:49:23;;;;;;;14.68;8.55;;;3.50;99.90;;;;;;6270668;22;20104;-79
2023/11/29 12:52:09;;;;;;;12.88;8.52;;;3.50;99.90;;;;;;6271980;22;20026;-81
2023/11/29 12:54:55;;;;;;;15.02;8.68;;;3.50;99.90;;;;;;6272730;22;20078;-81
2023/11/29 12:57:41;;;;;;;11.13;7.78;;;3.50;99.90;;;;;;6272674;22;20322;-78
2023/11/29 13:00:27;;;;;;;12.00;8.15;;;3.50;99.90;;;;;;6271219;22;20062;-66
2023/11/29 13:03:13;;;;;;;11.93;7.93;;;3.50;99.90;;;;;;6270349;22;20034;-66
2023/11/29 13:05:59;;;;;;;14.30;9.65;;;3.60;99.90;;;;;;6271626;22;20356;-66
2023/11/29 13:08:45;;;;;;;12.30;8.30;;;3.60;99.90;;;;;;6270495;22;20082;-66
2023/11/29 13:11:31;;;;;;;13.90;8.90;;;3.60;99.90;;;;;;6272115;22;20096;-66
2023/11/29 13:14:16;;;;;;;13.77;8.65;;;3.50;99.90;;;;;;6270952;22;20011;-66
2023/11/29 13:17:03;;;;;;;12.18;8.65;;;3.50;99.90;;;;;;6271745;22;20498;-67
2023/11/29 13:19:48;;;;;;;13.35;9.00;;;3.50;99.90;;;;;;6249423;22;20333;-66
2023/11/29 13:22:34;;;;;;;13.88;8.68;;;3.50;99.90;;;;;;6270116;22;20084;-66
2023/11/29 13:25:20;;;;;;;14.13;8.55;;;3.50;99.90;;;;;;6271643;22;19999;-66
2023/11/29 13:28:06;;;;;;;14.45;8.20;;;3.50;99.90;;;;;;6272129;22;20007;-78
2023/11/29 13:30:52;;;;;;;13.05;8.20;;;3.50;99.90;;;;;;6271839;22;20016;-79
2023/11/29 13:33:38;;;;;;;12.77;8.82;;;3.40;99.90;;;;;;6271351;22;20007;-80
2023/11/29 13:36:24;;;;;;;12.63;8.32;;;3.40;99.90;;;;;;6270870;22;20086;-79
2023/11/29 13:39:11;;;;;;;12.20;8.55;;;3.40;99.90;;;;;;6272234;22;20087;-79
2023/11/29 13:41:57;;;;;;;13.48;9.73;;;3.40;99.90;;;;;;6271271;22;20012;-67
2023/11/29 13:44:43;;;;;;;11.90;8.38;;;3.40;99.90;;;;;;6270041;22;20574;-66
2023/11/29 13:47:29;;;;;;;15.50;8.90;;;3.30;99.90;;;;;;6250508;22;20011;-68
2023/11/29 13:50:15;;;;;;;15.02;9.57;;;3.30;99.90;;;;;;6269835;22;20031;-67
2023/11/29 13:53:01;;;;;;;12.95;8.73;;;3.30;99.90;;;;;;6272168;22;20019;-66
2023/11/29 13:55:47;;;;;;;13.02;8.60;;;3.30;99.90;;;;;;6269952;22;20327;-66
2023/11/29 13:58:33;;;;;;;13.40;8.60;;;3.40;99.90;;;;;;6271928;22;20003;-79
2023/11/29 14:01:19;;;;;;;15.65;9.98;;;3.30;99.90;;;;;;6271951;22;20353;-77
2023/11/29 14:04:05;;;;;;;12.85;8.75;;;3.30;99.90;;;;;;6271606;22;20011;-79
2023/11/29 14:06:53;;;;;;;14.70;9.77;;;3.30;99.90;;;;;;6269140;22;20019;-80
2023/11/29 14:09:39;;;;;;;13.90;8.82;;;3.40;99.90;;;;;;6270417;22;20516;-66
2023/11/29 14:12:25;;;;;;;16.77;8.98;;;3.30;99.90;;;;;;6270524;22;20397;-65
2023/11/29 14:15:12;;;;;;;18.48;9.20;;;3.40;99.90;;;;;;6271555;22;20314;-66
2023/11/29 14:17:58;;;;;;;14.95;8.50;;;3.30;99.90;;;;;;6269919;22;20008;-67
2023/11/29 14:20:44;;;;;;;29.00;9.45;;;3.40;99.90;;;;;;6272224;22;20015;-67
2023/11/29 14:23:30;;;;;;;15.73;9.38;;;3.40;99.90;;;;;;6271611;22;20007;-66
2023/11/29 14:26:16;;;;;;;14.77;9.90;;;3.40;99.90;;;;;;6249049;22;20099;-67
2023/11/29 14:29:05;;;;;;;14.30;8.55;;;3.40;99.90;;;;;;6270341;22;20065;-68
2023/11/29 14:31:51;;;;;;;14.52;9.27;;;3.40;99.90;;;;;;6271107;22;20023;-66
2023/11/29 14:34:37;;;;;;;14.15;9.57;;;3.40;99.90;;;;;;6270948;22;20083;-67